This is the latest recevied weather packets stored in our database for station/object DH6PF-10. If no packets are shown the sender has not sent any weather packets the latest 10 day(s).
| Time | Temp. | Humidity | Pressure | Rain* | Wind** | Luminosity | Snow |
|---|---|---|---|---|---|---|---|
| 1787750510 | 26.11° C | 57% | 1017.6 hPa | - | - | - | - |
| 1787749911 | 26.11° C | 56% | 1017.7 hPa | - | - | - | - |
| 1787749310 | 25.56° C | 58% | 1017.8 hPa | - | - | - | - |
| 1787748711 | 25.56° C | 60% | 1017.7 hPa | - | - | - | - |
| 1787748110 | 25° C | 62% | 1017.8 hPa | - | - | - | - |
| 1787747510 | 24.44° C | 64% | 1017.7 hPa | - | - | - | - |
| 1787746910 | 24.44° C | 62% | 1018.1 hPa | - | - | - | - |
| 1787746310 | 25.56° C | 60% | 1017.8 hPa | - | - | - | - |
| 1787745710 | 25.56° C | 59% | 1018 hPa | - | - | - | - |
| 1787745110 | 24.44° C | 62% | 1018 hPa | - | - | - | - |
| 1787744510 | 24.44° C | 61% | 1018.3 hPa | - | - | - | - |
| 1787743911 | 24.44° C | 62% | 1018.2 hPa | - | - | - | - |
| 1787743310 | 24.44° C | 62% | 1018.4 hPa | - | - | - | - |
| 1787742710 | 23.89° C | 63% | 1018.4 hPa | - | - | - | - |
| 1787742110 | 22.78° C | 64% | 1018.5 hPa | - | - | - | - |
| 1787741510 | 23.33° C | 61% | 1018.9 hPa | - | - | - | - |
| 1787740910 | 22.22° C | 68% | 1018.7 hPa | - | - | - | - |
| 1787740310 | 21.67° C | 68% | 1018.8 hPa | - | - | - | - |
| 1787739710 | 22.22° C | 69% | 1018.6 hPa | - | - | - | - |
| 1787739110 | 22.22° C | 70% | 1019 hPa | - | - | - | - |
| 1787738510 | 21.11° C | 72% | 1019.1 hPa | - | - | - | - |
| 1787737910 | 21.11° C | 73% | 1018.9 hPa | - | - | - | - |
| 1787737310 | 20.56° C | 74% | 1019 hPa | - | - | - | - |
| 1787736710 | 20.56° C | 73% | 1019 hPa | - | - | - | - |
| 1787736110 | 20° C | 77% | 1019 hPa | - | - | - | - |
* Rain since midnight (hover to see other rain measurements)
** Current wind speed in m/s (hover to see current wind gust speed)